createdAt,value
2019-05-05T00:02:44.818Z,101349.91
2019-05-05T00:05:19.909Z,101353.73
2019-05-05T00:07:49.173Z,101358.70
2019-05-05T00:20:02.287Z,101358.91
2019-05-05T00:23:14.675Z,101362.30
2019-05-05T00:25:44.746Z,101361.07
2019-05-05T00:28:14.303Z,101368.38
2019-05-05T00:30:44.841Z,101366.69
2019-05-05T00:33:14.494Z,101370.59
2019-05-05T00:35:45.140Z,101372.16
2019-05-05T00:38:14.384Z,101377.48
2019-05-05T00:40:55.838Z,101370.22
2019-05-05T00:43:25.340Z,101376.94
2019-05-05T00:45:57.027Z,101379.81
2019-05-05T00:48:32.222Z,101381.84
2019-05-05T00:51:01.196Z,101377.45
2019-05-05T00:53:30.072Z,101384.98
2019-05-05T00:55:59.038Z,101386.39
2019-05-05T01:01:36.604Z,101388.58
2019-05-05T01:04:07.375Z,101394.55
2019-05-05T01:06:36.513Z,101392.06
2019-05-05T01:09:07.903Z,101391.33
2019-05-05T01:11:36.976Z,101396.49
2019-05-05T01:14:06.229Z,101400.91
2019-05-05T01:16:47.129Z,101399.16
2019-05-05T01:19:18.091Z,101397.13
2019-05-05T01:21:46.982Z,101398.27
2019-05-05T01:24:16.007Z,101400.55
2019-05-05T01:26:45.147Z,101403.06
2019-05-05T01:29:14.863Z,101406.70
2019-05-05T01:31:45.205Z,101405.84
2019-05-05T01:34:51.717Z,101409.38
2019-05-05T01:37:30.088Z,101413.34
2019-05-05T01:40:07.659Z,101416.50
2019-05-05T01:42:36.601Z,101420.02
2019-05-05T01:45:05.670Z,101418.60
2019-05-05T01:47:34.818Z,101423.89
2019-05-05T01:53:35.117Z,101416.31
2019-05-05T01:57:05.418Z,101423.28
2019-05-05T02:06:29.012Z,101429.16
2019-05-05T02:06:34.962Z,101428.20
2019-05-05T02:13:34.605Z,101435.54
2019-05-05T02:23:20.481Z,101432.31
2019-05-05T02:33:15.711Z,101430.61
2019-05-05T02:51:14.633Z,101434.44
2019-05-05T02:54:21.171Z,101434.80
2019-05-05T03:05:30.886Z,101436.26
2019-05-05T03:07:31.096Z,101441.30
2019-05-05T03:08:00.331Z,101451.67
2019-05-05T03:10:31.065Z,101446.23
2019-05-05T03:13:14.895Z,101453.13
2019-05-05T03:15:51.789Z,101448.44
2019-05-05T03:18:21.244Z,101452.31
2019-05-05T03:21:01.532Z,101456.25
2019-05-05T03:23:21.506Z,101451.95
2019-05-05T03:25:51.349Z,101461.54
2019-05-05T03:28:20.593Z,101457.45
2019-05-05T03:30:50.643Z,101464.93
2019-05-05T03:36:15.565Z,101467.58
2019-05-05T03:38:44.675Z,101472.20
2019-05-05T03:41:25.938Z,101474.64
2019-05-05T03:46:54.340Z,101481.41
2019-05-05T03:49:24.417Z,101483.63
2019-05-05T03:51:54.315Z,101488.89
2019-05-05T03:54:23.960Z,101486.48
2019-05-05T03:57:07.901Z,101500.53
2019-05-05T03:59:37.571Z,101497.05
2019-05-05T04:05:10.522Z,101506.61
2019-05-05T04:07:40.457Z,101504.40
2019-05-05T04:10:09.622Z,101509.16
2019-05-05T04:12:39.547Z,101504.77
2019-05-05T04:15:08.556Z,101512.13
2019-05-05T04:18:03.991Z,101516.46
2019-05-05T04:20:38.363Z,101508.37
2019-05-05T04:23:07.517Z,101510.41
2019-05-05T04:25:36.834Z,101509.90
2019-05-05T04:28:06.012Z,101518.59
2019-05-05T04:30:35.301Z,101518.97
2019-05-05T04:41:17.370Z,101532.25
2019-05-05T04:47:38.772Z,101530.98
2019-05-05T04:50:54.393Z,101534.28
2019-05-05T04:53:31.107Z,101535.08
2019-05-05T04:59:38.796Z,101537.19
2019-05-05T05:06:28.215Z,101535.77
2019-05-05T05:09:05.501Z,101539.00
2019-05-05T05:12:03.991Z,101544.77
2019-05-05T05:14:37.001Z,101539.30
2019-05-05T05:17:14.317Z,101541.98
2019-05-05T05:19:54.558Z,101548.47
2019-05-05T05:25:48.047Z,101549.54
2019-05-05T05:28:17.583Z,101540.25
2019-05-05T05:49:36.577Z,101547.30
2019-05-05T06:09:34.654Z,101557.20
2019-05-05T06:34:50.010Z,101562.19
2019-05-05T06:37:18.881Z,101575.20
2019-05-05T06:39:54.848Z,101562.87
2019-05-05T06:48:01.487Z,101570.46
2019-05-05T06:53:05.133Z,101575.34
2019-05-05T07:01:14.276Z,101576.40
2019-05-05T07:06:20.700Z,101586.91
2019-05-05T07:08:49.602Z,101589.80
2019-05-05T07:11:18.987Z,101589.20
2019-05-05T07:13:48.030Z,101591.33
2019-05-05T07:16:17.280Z,101593.40
2019-05-05T07:19:05.718Z,101599.73
2019-05-05T07:21:37.617Z,101604.87
2019-05-05T07:24:09.875Z,101603.63
2019-05-05T07:26:38.925Z,101605.11
2019-05-05T07:29:09.938Z,101606.54
2019-05-05T07:31:43.795Z,101607.17
2019-05-05T07:34:17.100Z,101607.13
2019-05-05T07:36:58.337Z,101612.07
2019-05-05T07:39:27.531Z,101613.53
2019-05-05T07:41:57.667Z,101599.27
2019-05-05T07:44:29.783Z,101599.41
2019-05-05T07:47:05.622Z,101600.25
2019-05-05T07:49:34.526Z,101603.14
2019-05-05T07:52:04.138Z,101613.08
2019-05-05T07:54:34.247Z,101606.36
2019-05-05T07:57:14.766Z,101609.16
2019-05-05T07:59:44.986Z,101613.37
2019-05-05T08:02:14.638Z,101614.25
2019-05-05T08:04:43.893Z,101608.04
2019-05-05T08:07:14.732Z,101608.04
2019-05-05T08:09:44.558Z,101606.09
2019-05-05T08:12:13.900Z,101614.28
2019-05-05T08:14:44.392Z,101612.54
2019-05-05T08:17:41.552Z,101612.54
2019-05-05T08:20:14.351Z,101613.72
2019-05-05T08:22:44.287Z,101621.15
2019-05-05T08:25:36.874Z,101610.53
2019-05-05T08:28:25.414Z,101610.53
2019-05-05T08:31:33.949Z,101611.92
2019-05-05T08:34:24.568Z,101610.67
2019-05-05T08:36:53.865Z,101618.38
2019-05-05T08:39:24.364Z,101620.02
2019-05-05T08:41:53.876Z,101616.05
2019-05-05T08:45:17.175Z,101614.52
2019-05-05T08:58:49.757Z,101613.98
2019-05-05T09:01:27.505Z,101612.67
2019-05-05T09:04:00.174Z,101614.21
2019-05-05T09:06:29.637Z,101606.52
2019-05-05T09:09:14.410Z,101606.06
2019-05-05T09:11:54.075Z,101611.58
2019-05-05T09:14:28.050Z,101615.52
2019-05-05T09:17:04.654Z,101625.02
2019-05-05T09:38:26.357Z,101606.30
2019-05-05T10:09:35.866Z,101599.59
2019-05-05T10:11:41.545Z,101615.95
2019-05-05T10:24:26.840Z,101629.77
2019-05-05T10:27:00.922Z,101628.22
2019-05-05T10:46:16.121Z,101635.45
2019-05-05T10:46:51.476Z,101612.41
2019-05-05T10:49:21.065Z,101616.42
2019-05-05T10:51:50.424Z,101601.72
2019-05-05T10:54:44.203Z,101601.72
2019-05-05T10:57:09.624Z,101609.63
2019-05-05T10:59:43.534Z,101626.92
2019-05-05T11:02:14.146Z,101616.02
2019-05-05T11:04:44.306Z,101610.13
2019-05-05T11:07:17.873Z,101629.87
2019-05-05T11:12:57.968Z,101625.63
2019-05-05T11:15:27.520Z,101627.73
2019-05-05T11:17:57.556Z,101627.73
2019-05-05T11:20:34.090Z,101630.41
2019-05-05T11:26:58.678Z,101613.88
2019-05-05T11:33:43.939Z,101618.83
2019-05-05T11:36:30.272Z,101624.94
2019-05-05T11:39:00.671Z,101625.77
2019-05-05T11:41:56.063Z,101619.73
2019-05-05T12:08:55.197Z,101623.05
2019-05-05T12:11:25.466Z,101620.58
2019-05-05T12:30:35.810Z,101630.43
2019-05-05T12:33:04.969Z,101620.59
2019-05-05T12:35:34.078Z,101621.42
2019-05-05T12:38:03.641Z,101610.63
2019-05-05T12:40:35.191Z,101609.36
2019-05-05T12:43:40.711Z,101606.86
2019-05-05T12:52:07.599Z,101615.43
2019-05-05T12:54:38.037Z,101616.59
2019-05-05T12:57:08.679Z,101616.56
2019-05-05T12:59:40.118Z,101613.67
2019-05-05T13:02:10.945Z,101608.92
2019-05-05T13:04:42.350Z,101611.58
2019-05-05T13:07:13.706Z,101615.21
2019-05-05T13:10:37.019Z,101615.70
2019-05-05T13:24:04.401Z,101644.83
2019-05-05T13:26:54.068Z,101632.33
2019-05-05T13:29:46.941Z,101629.32
2019-05-05T13:32:16.223Z,101614.48
2019-05-05T13:34:47.516Z,101611.47
2019-05-05T13:37:17.160Z,101615.28
2019-05-05T13:40:01.414Z,101606.48
2019-05-05T13:42:30.800Z,101622.33
2019-05-05T13:45:14.496Z,101632.70
2019-05-05T13:47:47.181Z,101636.09
2019-05-05T13:50:23.959Z,101636.32
2019-05-05T13:52:54.939Z,101619.82
2019-05-05T13:55:39.643Z,101622.87
2019-05-05T13:58:15.346Z,101620.52
2019-05-05T14:00:44.771Z,101620.98
2019-05-05T14:03:18.573Z,101629.55
2019-05-05T14:05:48.368Z,101640.84
2019-05-05T14:08:29.960Z,101633.08
2019-05-05T14:11:18.599Z,101636.69
2019-05-05T14:14:06.788Z,101636.30
2019-05-05T14:16:53.776Z,101633.66
2019-05-05T14:24:00.819Z,101638.31
2019-05-05T14:26:49.618Z,101635.94
2019-05-05T14:29:57.006Z,101628.71
2019-05-05T14:32:43.808Z,101652.41
2019-05-05T14:35:22.845Z,101641.80
2019-05-05T14:37:54.707Z,101641.13
2019-05-05T14:40:24.282Z,101637.56
2019-05-05T14:42:53.972Z,101645.81
2019-05-05T14:45:25.337Z,101639.98
2019-05-05T14:47:54.393Z,101649.20
2019-05-05T14:50:24.748Z,101639.70
2019-05-05T14:53:14.510Z,101632.73
2019-05-05T14:55:47.631Z,101637.91
2019-05-05T14:58:24.004Z,101643.71
2019-05-05T15:01:00.524Z,101631.77
2019-05-05T15:03:29.735Z,101635.15
2019-05-05T15:06:18.907Z,101638.31
2019-05-05T15:09:20.146Z,101640.66
2019-05-05T15:12:16.258Z,101640.66
2019-05-05T15:14:51.782Z,101619.36
2019-05-05T15:17:21.277Z,101628.16
2019-05-05T15:19:50.357Z,101628.23
2019-05-05T15:22:19.833Z,101628.33
2019-05-05T15:24:48.770Z,101633.86
2019-05-05T15:27:17.817Z,101643.69
2019-05-05T15:29:46.825Z,101655.35
2019-05-05T15:32:15.842Z,101652.98
2019-05-05T15:34:44.909Z,101647.70
2019-05-05T15:37:31.362Z,101646.78
2019-05-05T15:40:00.521Z,101669.42
2019-05-05T15:42:33.388Z,101668.22
2019-05-05T15:45:06.135Z,101669.08
2019-05-05T15:47:35.263Z,101676.35
2019-05-05T15:50:05.172Z,101671.23
2019-05-05T15:52:35.146Z,101678.00
2019-05-05T15:55:58.376Z,101671.00
2019-05-05T15:58:27.466Z,101671.00
2019-05-05T16:00:57.747Z,101666.29
2019-05-05T16:03:29.723Z,101666.78
2019-05-05T16:06:17.602Z,101664.67
2019-05-05T16:08:46.516Z,101661.70
2019-05-05T16:11:15.494Z,101668.73
2019-05-05T16:13:44.508Z,101664.76
2019-05-05T16:16:24.859Z,101671.16
2019-05-05T16:19:27.875Z,101677.86
2019-05-05T16:21:59.037Z,101679.65
2019-05-05T16:24:33.594Z,101673.63
2019-05-05T16:27:17.923Z,101679.45
2019-05-05T16:32:47.597Z,101676.92
2019-05-05T16:36:09.570Z,101676.20
2019-05-05T16:38:38.654Z,101677.45
2019-05-05T16:41:07.679Z,101673.60
2019-05-05T16:43:37.411Z,101663.47
2019-05-05T16:46:06.583Z,101664.14
2019-05-05T16:48:35.806Z,101663.89
2019-05-05T16:51:06.731Z,101664.97
2019-05-05T16:53:36.638Z,101660.36
2019-05-05T16:56:07.385Z,101658.73
2019-05-05T16:58:36.497Z,101659.85
2019-05-05T17:01:26.925Z,101661.29
2019-05-05T17:04:08.442Z,101663.38
2019-05-05T17:06:36.384Z,101665.39
2019-05-05T17:09:09.224Z,101660.91
2019-05-05T17:12:10.052Z,101677.47
2019-05-05T17:14:58.420Z,101673.27
2019-05-05T17:17:34.149Z,101677.31
2019-05-05T17:20:09.282Z,101681.83
2019-05-05T17:23:03.985Z,101683.40
2019-05-05T17:25:34.275Z,101681.78
2019-05-05T17:28:04.533Z,101672.97
2019-05-05T17:30:34.340Z,101678.00
2019-05-05T17:33:24.144Z,101671.70
2019-05-05T17:35:53.949Z,101680.53
2019-05-05T17:38:24.405Z,101678.70
2019-05-05T17:44:18.844Z,101677.51
2019-05-05T17:47:06.657Z,101676.91
2019-05-05T17:49:55.136Z,101686.10
2019-05-05T17:52:41.348Z,101683.88
2019-05-05T17:55:29.749Z,101694.47
2019-05-05T17:58:02.352Z,101699.13
2019-05-05T18:00:34.318Z,101707.25
2019-05-05T18:03:04.437Z,101706.36
2019-05-05T18:05:54.512Z,101707.45
2019-05-05T18:08:38.307Z,101719.62
2019-05-05T18:11:18.178Z,101714.09
2019-05-05T18:14:30.863Z,101722.16
2019-05-05T18:17:00.457Z,101713.19
2019-05-05T18:19:34.129Z,101714.70
2019-05-05T18:22:03.405Z,101716.88
2019-05-05T18:24:33.700Z,101713.66
2019-05-05T18:27:04.579Z,101713.45
2019-05-05T18:29:34.104Z,101718.53
2019-05-05T18:32:06.417Z,101715.16
2019-05-05T18:34:50.173Z,101721.22
2019-05-05T18:37:19.618Z,101722.30
2019-05-05T18:39:48.868Z,101712.08
2019-05-05T18:42:21.114Z,101718.23
2019-05-05T18:44:54.037Z,101717.89
2019-05-05T18:47:25.133Z,101719.98
2019-05-05T18:49:54.213Z,101723.83
2019-05-05T18:52:26.545Z,101718.49
2019-05-05T18:55:44.311Z,101713.68
2019-05-05T19:37:45.056Z,101739.20
2019-05-05T20:03:36.860Z,101752.37
2019-05-05T20:17:04.258Z,101756.77
2019-05-05T20:19:37.589Z,101753.22
2019-05-05T20:22:06.614Z,101752.02
2019-05-05T20:24:35.635Z,101750.16
2019-05-05T20:27:04.785Z,101750.47
2019-05-05T20:29:37.086Z,101746.71
2019-05-05T20:32:34.125Z,101747.66
2019-05-05T20:38:32.020Z,101743.25
2019-05-05T20:41:14.433Z,101745.77
2019-05-05T20:43:44.839Z,101744.36
2019-05-05T21:00:06.642Z,101749.98
2019-05-05T21:05:10.534Z,101741.95
2019-05-05T21:07:40.862Z,101743.03
2019-05-05T21:26:40.400Z,101737.73
2019-05-05T21:29:09.590Z,101735.59
2019-05-05T21:31:47.904Z,101736.77
2019-05-05T22:33:30.062Z,101708.32
2019-05-05T22:53:14.034Z,101693.23
2019-05-05T22:55:44.734Z,101692.36
2019-05-05T22:58:14.394Z,101692.14
2019-05-05T23:00:54.886Z,101691.52
2019-05-05T23:03:55.243Z,101696.14
2019-05-05T23:06:25.686Z,101699.95
2019-05-05T23:08:54.751Z,101704.36
2019-05-05T23:11:24.031Z,101701.61
2019-05-05T23:14:34.330Z,101698.71
2019-05-05T23:17:20.959Z,101697.95
2019-05-05T23:28:55.245Z,101690.89
2019-05-05T23:31:24.302Z,101690.20
2019-05-05T23:33:54.903Z,101687.73
2019-05-05T23:36:24.262Z,101680.68
2019-05-05T23:38:54.906Z,101685.80
2019-05-05T23:41:24.048Z,101684.14
2019-05-05T23:43:54.514Z,101687.34
2019-05-05T23:46:36.827Z,101696.20
2019-05-05T23:49:05.879Z,101687.52
2019-05-05T23:51:34.964Z,101683.80
2019-05-05T23:54:04.403Z,101682.66
2019-05-05T23:56:34.928Z,101679.75
2019-05-05T23:59:04.408Z,101675.81
